Map

Track Data

SID SEASON NUMBER BASIN SUBBASIN NAME ISO_TIME NATURE LAT LON WMO_WIND WMO_PRES WMO_AGENCY TRACK_TYPE DIST2LAND LANDFALL IFLAG USA_AGENCY USA_ATCF_ID USA_LAT USA_LON USA_RECORD USA_STATUS USA_WIND USA_PRES USA_SSHS USA_R34_NE USA_R34_SE USA_R34_SW USA_R34_NW USA_R50_NE USA_R50_SE USA_R50_SW USA_R50_NW USA_R64_NE USA_R64_SE USA_R64_SW USA_R64_NW USA_POCI USA_ROCI USA_RMW USA_EYE TOKYO_LAT TOKYO_LON TOKYO_GRADE TOKYO_WIND TOKYO_PRES TOKYO_R50_DIR TOKYO_R50_LONG TOKYO_R50_SHORT TOKYO_R30_DIR TOKYO_R30_LONG TOKYO_R30_SHORT TOKYO_LAND CMA_LAT CMA_LON CMA_CAT CMA_WIND CMA_PRES HKO_LAT HKO_LON HKO_CAT HKO_WIND HKO_PRES NEWDELHI_LAT NEWDELHI_LON NEWDELHI_GRADE NEWDELHI_WIND NEWDELHI_PRES NEWDELHI_CI NEWDELHI_DP NEWDELHI_POCI REUNION_LAT REUNION_LON REUNION_TYPE REUNION_WIND REUNION_PRES REUNION_TNUM REUNION_CI REUNION_RMW REUNION_R34_NE REUNION_R34_SE REUNION_R34_SW REUNION_R34_NW REUNION_R50_NE REUNION_R50_SE REUNION_R50_SW REUNION_R50_NW REUNION_R64_NE REUNION_R64_SE REUNION_R64_SW REUNION_R64_NW BOM_LAT BOM_LON BOM_TYPE BOM_WIND BOM_PRES BOM_TNUM BOM_CI BOM_RMW BOM_R34_NE BOM_R34_SE BOM_R34_SW BOM_R34_NW BOM_R50_NE BOM_R50_SE BOM_R50_SW BOM_R50_NW BOM_R64_NE BOM_R64_SE BOM_R64_SW BOM_R64_NW BOM_ROCI BOM_POCI BOM_EYE BOM_POS_METHOD BOM_PRES_METHOD NADI_LAT NADI_LON NADI_CAT NADI_WIND NADI_PRES WELLINGTON_LAT WELLINGTON_LON WELLINGTON_WIND WELLINGTON_PRES DS824_LAT DS824_LON DS824_STAGE DS824_WIND DS824_PRES TD9636_LAT TD9636_LON TD9636_STAGE TD9636_WIND TD9636_PRES TD9635_LAT TD9635_LON TD9635_WIND TD9635_PRES TD9635_ROCI NEUMANN_LAT NEUMANN_LON NEUMANN_CLASS NEUMANN_WIND NEUMANN_PRES MLC_LAT MLC_LON MLC_CLASS MLC_WIND MLC_PRES USA_GUST BOM_GUST BOM_GUST_PER REUNION_GUST REUNION_GUST_PER USA_SEAHGT USA_SEARAD_NE USA_SEARAD_SE USA_SEARAD_SW USA_SEARAD_NW STORM_SPEED STORM_DIR
1999251N15314 1999 75 NA NA FLOYD 1999-09-07 18:00:00 TS 14.6000 -45.6000 25 1008 hurdat_atl main 1302 1283 O_____________ hurdat_atl AL081999 14.6000 -45.6000 TD 25 1008 -1 13 289
1999251N15314 1999 75 NA NA FLOYD 1999-09-07 21:00:00 TS 14.8154 -46.2521 main 1277 1262 P_____________ AL081999 14.8154 -46.2521 TD 27 1007 -1 13 288
1999251N15314 1999 75 NA NA FLOYD 1999-09-08 00:00:00 TS 15.0000 -46.9000 30 1007 hurdat_atl main 1262 1241 O_____________ hurdat_atl AL081999 15.0000 -46.9000 TD 30 1007 -1 13 285
1999251N15314 1999 75 NA NA FLOYD 1999-09-08 03:00:00 TS 15.1422 -47.5428 main 1241 1226 P_____________ AL081999 15.1422 -47.5428 TD 32 1006 -1 13 283
1999251N15314 1999 75 NA NA FLOYD 1999-09-08 06:00:00 TS 15.3000 -48.2000 35 1005 hurdat_atl main 1227 1216 O_____________ hurdat_atl AL081999 15.3000 -48.2000 TS 35 1005 0 14 287
1999251N15314 1999 75 NA NA FLOYD 1999-09-08 09:00:00 TS 15.5348 -48.8850 main 1219 1215 P_____________ AL081999 15.5348 -48.8850 TS 37 1004 0 14 290
1999251N15314 1999 75 NA NA FLOYD 1999-09-08 12:00:00 TS 15.8000 -49.6000 40 1003 hurdat_atl main 1217 1208 O_____________ hurdat_atl AL081999 15.8000 -49.6000 TS 40 1003 0 15 290
1999251N15314 1999 75 NA NA FLOYD 1999-09-08 15:00:00 TS 16.0573 -50.3426 main 1218 1207 P_____________ AL081999 16.0573 -50.3426 TS 42 1001 0 15 289
1999251N15314 1999 75 NA NA FLOYD 1999-09-08 18:00:00 TS 16.3000 -51.1000 45 1000 hurdat_atl main 1212 1187 O_____________ hurdat_atl AL081999 16.3000 -51.1000 TS 45 1000 0 15 287
1999251N15314 1999 75 NA NA FLOYD 1999-09-08 21:00:00 TS 16.5074 -51.8652 main 1178 1129 P_____________ AL081999 16.5074 -51.8652 TS 45 1000 0 15 286
1999251N15314 1999 75 NA NA FLOYD 1999-09-09 00:00:00 TS 16.7000 -52.6000 45 1000 hurdat_atl main 1129 1091 O_____________ hurdat_atl AL081999 16.7000 -52.6000 TS 45 1000 0 14 287
1999251N15314 1999 75 NA NA FLOYD 1999-09-09 03:00:00 TS 16.9147 -53.2725 main 1083 1049 P_____________ AL081999 16.9147 -53.2725 TS 45 1001 0 13 288
1999251N15314 1999 75 NA NA FLOYD 1999-09-09 06:00:00 TS 17.1000 -53.9000 45 1003 hurdat_atl main 1049 1010 O_____________ hurdat_atl AL081999 17.1000 -53.9000 TS 45 1003 0 12 283
1999251N15314 1999 75 NA NA FLOYD 1999-09-09 09:00:00 TS 17.1848 -54.5080 main 1010 975 P_____________ AL081999 17.1848 -54.5080 TS 47 1003 0 12 280
1999251N15314 1999 75 NA NA FLOYD 1999-09-09 12:00:00 TS 17.3000 -55.1000 50 1003 hurdat_atl main 975 951 O_____________ hurdat_atl AL081999 17.3000 -55.1000 TS 50 1003 0 12 289
1999251N15314 1999 75 NA NA FLOYD 1999-09-09 15:00:00 TS 17.5850 -55.7222 main 960 948 P_____________ AL081999 17.5850 -55.7222 TS 55 999 0 13 298
1999251N15314 1999 75 NA NA FLOYD 1999-09-09 18:00:00 TS 17.9000 -56.3000 60 996 hurdat_atl main 951 940 O_____________ hurdat_atl AL081999 17.9000 -56.3000 TS 60 996 0 11 298
1999251N15314 1999 75 NA NA FLOYD 1999-09-09 21:00:00 TS 18.1222 -56.7653 main 929 886 P_____________ AL081999 18.1222 -56.7653 TS 60 995 0 9 295
1999251N15314 1999 75 NA NA FLOYD 1999-09-10 00:00:00 TS 18.3000 -57.2000 60 995 hurdat_atl main 886 833 O_____________ hurdat_atl AL081999 18.3000 -57.2000 TS 60 995 0 10 289
1999251N15314 1999 75 NA NA FLOYD 1999-09-10 03:00:00 TS 18.4276 -57.7227 main 833 780 P_____________ AL081999 18.4276 -57.7227 TS 60 992 0 10 288
1999251N15314 1999 75 NA NA FLOYD 1999-09-10 06:00:00 TS 18.6000 -58.2000 60 990 hurdat_atl main 780 749 O_____________ hurdat_atl AL081999 18.6000 -58.2000 TS 60 990 0 9 302
1999251N15314 1999 75 NA NA FLOYD 1999-09-10 09:00:00 TS 18.9047 -58.5153 main 750 722 P_____________ AL081999 18.9047 -58.5153 TS 65 989 1 9 321
1999251N15314 1999 75 NA NA FLOYD 1999-09-10 12:00:00 TS 19.3000 -58.8000 70 989 hurdat_atl main 722 688 O_____________ hurdat_atl AL081999 19.3000 -58.8000 HU 70 989 1 11 323
1999251N15314 1999 75 NA NA FLOYD 1999-09-10 15:00:00 TS 19.7575 -59.1848 main 690 661 P_____________ AL081999 19.7575 -59.1848 HU 70 982 1 12 320
1999251N15314 1999 75 NA NA FLOYD 1999-09-10 18:00:00 TS 20.2000 -59.6000 70 975 hurdat_atl main 661 632 O_____________ hurdat_atl AL081999 20.2000 -59.6000 HU 70 975 1 11 315
1999251N15314 1999 75 NA NA FLOYD 1999-09-10 21:00:00 TS 20.5225 -60.0078 main 632 607 P_____________ AL081999 20.5225 -60.0078 HU 75 973 1 10 309
1999251N15314 1999 75 NA NA FLOYD 1999-09-11 00:00:00 TS 20.8000 -60.4000 80 971 hurdat_atl main 607 589 O_____________ hurdat_atl AL081999 20.8000 -60.4000 HU 80 971 1 9 310
1999251N15314 1999 75 NA NA FLOYD 1999-09-11 03:00:00 TS 21.1073 -60.7427 main 595 577 P_____________ AL081999 21.1073 -60.7427 HU 87 967 2 9 313
1999251N15314 1999 75 NA NA FLOYD 1999-09-11 06:00:00 TS 21.4000 -61.1000 95 963 hurdat_atl main 577 558 O_____________ hurdat_atl AL081999 21.4000 -61.1000 HU 95 963 2 9 307
1999251N15314 1999 75 NA NA FLOYD 1999-09-11 09:00:00 TS 21.6499 -61.5278 main 558 542 P_____________ AL081999 21.6499 -61.5278 HU 95 962 2 10 301
1999251N15314 1999 75 NA NA FLOYD 1999-09-11 12:00:00 TS 21.9000 -62.0000 95 962 hurdat_atl main 542 533 O_____________ hurdat_atl AL081999 21.9000 -62.0000 HU 95 962 2 11 303
1999251N15314 1999 75 NA NA FLOYD 1999-09-11 15:00:00 TS 22.2223 -62.4848 main 533 528 P_____________ AL081999 22.2223 -62.4848 HU 92 964 2 11 303
1999251N15314 1999 75 NA NA FLOYD 1999-09-11 18:00:00 TS 22.5000 -63.0000 90 966 hurdat_atl main 532 518 O_____________ hurdat_atl AL081999 22.5000 -63.0000 HU 90 966 2 11 293
1999251N15314 1999 75 NA NA FLOYD 1999-09-11 21:00:00 TS 22.6374 -63.5428 main 518 505 P_____________ AL081999 22.6374 -63.5428 HU 87 966 2 10 281
1999251N15314 1999 75 NA NA FLOYD 1999-09-12 00:00:00 TS 22.7000 -64.1000 85 967 hurdat_atl main 505 492 O_____________ hurdat_atl AL081999 22.7000 -64.1000 HU 85 967 2 10 276
1999251N15314 1999 75 NA NA FLOYD 1999-09-12 03:00:00 TS 22.7499 -64.6577 main 489 489 P_____________ AL081999 22.7499 -64.6577 HU 90 963 2 10 276
1999251N15314 1999 75 NA NA FLOYD 1999-09-12 06:00:00 TS 22.8000 -65.2000 95 960 hurdat_atl main 493 492 O_____________ hurdat_atl AL081999 22.8000 -65.2000 HU 95 960 2 10 278
1999251N15314 1999 75 NA NA FLOYD 1999-09-12 09:00:00 TS 22.8921 -65.6925 main 503 503 P_____________ AL081999 22.8921 -65.6925 HU 100 957 3 9 282
1999251N15314 1999 75 NA NA FLOYD 1999-09-12 12:00:00 TS 23.0000 -66.2000 105 955 hurdat_atl main 514 503 O_____________ hurdat_atl AL081999 23.0000 -66.2000 HU 105 955 3 10 282
1999251N15314 1999 75 NA NA FLOYD 1999-09-12 15:00:00 TS 23.0998 -66.7776 main 497 478 P_____________ AL081999 23.0998 -66.7776 HU 110 947 3 11 280
1999251N15314 1999 75 NA NA FLOYD 1999-09-12 18:00:00 TS 23.2000 -67.4000 115 940 hurdat_atl main 478 462 O_____________ hurdat_atl AL081999 23.2000 -67.4000 HU 115 940 4 12 280
1999251N15314 1999 75 NA NA FLOYD 1999-09-12 21:00:00 TS 23.2998 -68.0426 main 462 445 P_____________ AL081999 23.2998 -68.0426 HU 120 935 4 12 280
1999251N15314 1999 75 NA NA FLOYD 1999-09-13 00:00:00 TS 23.4000 -68.7000 125 931 hurdat_atl main 445 434 O_____________ hurdat_atl AL081999 23.4000 -68.7000 HU 125 931 4 12 279
1999251N15314 1999 75 NA NA FLOYD 1999-09-13 03:00:00 TS 23.4921 -69.3427 main 434 408 P_____________ AL081999 23.4921 -69.3427 HU 130 926 4 12 280
1999251N15314 1999 75 NA NA FLOYD 1999-09-13 06:00:00 TS 23.6000 -70.0000 135 922 hurdat_atl main 408 372 O_____________ hurdat_atl AL081999 23.6000 -70.0000 HU 135 922 4 13 282
1999251N15314 1999 75 NA NA FLOYD 1999-09-13 09:00:00 TS 23.7497 -70.6849 main 365 343 P_____________ AL081999 23.7497 -70.6849 HU 135 921 4 13 283
1999251N15314 1999 75 NA NA FLOYD 1999-09-13 12:00:00 TS 23.9000 -71.4000 135 921 hurdat_atl main 343 326 O_____________ hurdat_atl AL081999 23.9000 -71.4000 HU 135 921 4 14 280
1999251N15314 1999 75 NA NA FLOYD 1999-09-13 15:00:00 TS 23.9926 -72.1729 main 323 315 P_____________ AL081999 23.9926 -72.1729 HU 130 922 4 14 278
1999251N15314 1999 75 NA NA FLOYD 1999-09-13 18:00:00 TS 24.1000 -72.9000 125 923 hurdat_atl main 324 324 O_____________ hurdat_atl AL081999 24.1000 -72.9000 HU 125 923 4 12 284
1999251N15314 1999 75 NA NA FLOYD 1999-09-13 21:00:00 TS 24.2843 -73.4651 main 347 347 P_____________ AL081999 24.2843 -73.4651 HU 120 923 4 11 292
1999251N15314 1999 75 NA NA FLOYD 1999-09-14 00:00:00 TS 24.5000 -74.0000 115 924 hurdat_atl main 374 314 O_____________ hurdat_atl AL081999 24.5000 -74.0000 HU 115 924 4 12 291
1999251N15314 1999 75 NA NA FLOYD 1999-09-14 03:00:00 TS 24.6927 -74.6576 main 303 246 P_____________ AL081999 24.6927 -74.6576 HU 110 925 3 12 289
1999251N15314 1999 75 NA NA FLOYD 1999-09-14 06:00:00 TS 24.9000 -75.3000 105 927 hurdat_atl main 246 203 O_____________ hurdat_atl AL081999 24.9000 -75.3000 HU 105 927 3 12 292
1999251N15314 1999 75 NA NA FLOYD 1999-09-14 09:00:00 TS 25.1273 -75.8452 main 203 170 P_____________ AL081999 25.1273 -75.8452 HU 105 928 3 10 299
1999251N15314 1999 75 NA NA FLOYD 1999-09-14 12:00:00 TS 25.4000 -76.3000 105 930 hurdat_atl main 170 146 O_____________ hurdat_atl AL081999 25.4000 -76.3000 L HU 105 930 3 9 306
1999251N15314 1999 75 NA NA FLOYD 1999-09-14 15:00:00 TS 25.6703 -76.6818 main 146 137 P_____________ AL081999 25.6703 -76.6818 HU 107 930 3 9 318
1999251N15314 1999 75 NA NA FLOYD 1999-09-14 18:00:00 TS 26.1000 -77.0000 110 930 hurdat_atl main 150 150 O_____________ hurdat_atl AL081999 26.1000 -77.0000 HU 110 930 3 11 329
1999251N15314 1999 75 NA NA FLOYD 1999-09-14 19:00:00 TS 26.3000 -77.1000 110 932 hurdat_atl main 161 161 O_____________ hurdat_atl AL081999 26.3000 -77.1000 L HU 110 932 3 12 332
1999251N15314 1999 75 NA NA FLOYD 1999-09-14 21:00:00 TS 26.6431 -77.3231 main 181 181 P_____________ AL081999 26.6431 -77.3231 HU 111 932 3 12 326
1999251N15314 1999 75 NA NA FLOYD 1999-09-15 00:00:00 TS 27.1000 -77.7000 115 933 hurdat_atl main 225 203 O_____________ hurdat_atl AL081999 27.1000 -77.7000 HU 115 933 4 12 324
1999251N15314 1999 75 NA NA FLOYD 1999-09-15 03:00:00 TS 27.6386 -78.1224 main 207 193 P_____________ AL081999 27.6386 -78.1224 HU 112 934 3 13 327
1999251N15314 1999 75 NA NA FLOYD 1999-09-15 06:00:00 TS 28.2000 -78.5000 110 935 hurdat_atl main 198 175 O_____________ hurdat_atl AL081999 28.2000 -78.5000 HU 110 935 3 12 333
1999251N15314 1999 75 NA NA FLOYD 1999-09-15 09:00:00 TS 28.7348 -78.7455 main 176 169 P_____________ AL081999 28.7348 -78.7455 HU 105 939 3 12 342
1999251N15314 1999 75 NA NA FLOYD 1999-09-15 12:00:00 TS 29.3000 -78.9000 100 943 hurdat_atl main 179 179 O_____________ hurdat_atl AL081999 29.3000 -78.9000 HU 100 943 3 12 347
1999251N15314 1999 75 NA NA FLOYD 1999-09-15 15:00:00 TS 29.9199 -79.0594 main 195 195 P_____________ AL081999 29.9199 -79.0594 HU 97 945 3 13 352
1999251N15314 1999 75 NA NA FLOYD 1999-09-15 18:00:00 TS 30.6000 -79.1000 95 947 hurdat_atl main 219 172 O_____________ hurdat_atl AL081999 30.6000 -79.1000 HU 95 947 2 14 3
1999251N15314 1999 75 NA NA FLOYD 1999-09-15 21:00:00 TS 31.3274 -78.9676 main 172 119 P_____________ AL081999 31.3274 -78.9676 HU 92 948 2 15 13
1999251N15314 1999 75 NA NA FLOYD 1999-09-16 00:00:00 TS 32.1000 -78.7000 90 950 hurdat_atl main 119 86 O_____________ hurdat_atl AL081999 32.1000 -78.7000 HU 90 950 2 17 20
1999251N15314 1999 75 NA NA FLOYD 1999-09-16 03:00:00 TS 32.9533 -78.2659 main 86 22 P_____________ AL081999 32.9533 -78.2659 HU 90 953 2 17 20
1999251N15314 1999 75 NA NA FLOYD 1999-09-16 06:00:00 TS 33.7000 -78.0000 90 956 hurdat_atl main 22 11 O_____________ hurdat_atl AL081999 33.7000 -78.0000 HU 90 956 2 15 15
1999251N15314 1999 75 NA NA FLOYD 1999-09-16 06:30:00 TS 33.8000 -78.0000 90 956 hurdat_atl main 11 0 O_____________ hurdat_atl AL081999 33.8000 -78.0000 L HU 90 956 2 18 19
1999251N15314 1999 75 NA NA FLOYD 1999-09-16 09:00:00 TS 34.5316 -77.6481 main 0 0 P_____________ AL081999 34.5316 -77.6481 HU 80 960 1 23 27
1999251N15314 1999 75 NA NA FLOYD 1999-09-16 12:00:00 TS 35.7000 -76.8000 70 967 hurdat_atl main 0 0 O_____________ hurdat_atl AL081999 35.7000 -76.8000 HU 70 967 1 26 29
1999251N15314 1999 75 NA NA FLOYD 1999-09-16 15:00:00 TS 36.8094 -76.0842 main 0 0 P_____________ AL081999 36.8094 -76.0842 HU 65 970 1 26 28
1999251N15314 1999 75 NA NA FLOYD 1999-09-16 18:00:00 TS 38.0000 -75.3000 60 974 hurdat_atl main 8 0 O_____________ hurdat_atl AL081999 38.0000 -75.3000 TS 60 974 0 29 28
1999251N15314 1999 75 NA NA FLOYD 1999-09-16 21:00:00 TS 39.3603 -74.3957 main 8 0 P_____________ AL081999 39.3603 -74.3957 TS 55 977 0 30 28
1999251N15314 1999 75 NA NA FLOYD 1999-09-17 00:00:00 TS 40.6000 -73.5000 50 980 hurdat_atl main 0 0 O_____________ hurdat_atl AL081999 40.6000 -73.5000 TS 50 980 0 24 30
1999251N15314 1999 75 NA NA FLOYD 1999-09-17 03:00:00 TS 41.4536 -72.7724 main 0 0 P_____________ AL081999 41.4536 -72.7724 TS 50 981 0 18 35
1999251N15314 1999 75 NA NA FLOYD 1999-09-17 06:00:00 TS 42.1000 -72.1000 50 983 hurdat_atl main 0 0 O_____________ hurdat_atl AL081999 42.1000 -72.1000 TS 50 983 0 17 39
1999251N15314 1999 75 NA NA FLOYD 1999-09-17 09:00:00 TS 42.7443 -71.3710 main 0 0 P_____________ AL081999 42.7443 -71.3710 TS 47 983 0 16 43
1999251N15314 1999 75 NA NA FLOYD 1999-09-17 12:00:00 ET 43.3000 -70.6000 45 984 hurdat_atl main 0 0 O_____________ hurdat_atl AL081999 43.3000 -70.6000 EX 45 984 -4 16 48
1999251N15314 1999 75 NA NA FLOYD 1999-09-17 15:00:00 ET 43.7948 -69.7568 main 0 0 P_____________ AL081999 43.7948 -69.7568 EX 45 984 -4 15 54
1999251N15314 1999 75 NA NA FLOYD 1999-09-17 18:00:00 ET 44.2000 -68.9000 45 985 hurdat_atl main 7 0 O_____________ hurdat_atl AL081999 44.2000 -68.9000 EX 45 985 -4 14 58
1999251N15314 1999 75 NA NA FLOYD 1999-09-17 21:00:00 ET 44.5214 -68.1054 main 0 0 P_____________ AL081999 44.5214 -68.1054 EX 42 986 -4 13 62
1999251N15314 1999 75 NA NA FLOYD 1999-09-18 00:00:00 ET 44.8000 -67.3000 40 987 hurdat_atl main 0 0 O_____________ hurdat_atl AL081999 44.8000 -67.3000 EX 40 987 -4 13 65
1999251N15314 1999 75 NA NA FLOYD 1999-09-18 03:00:00 ET 45.0533 -66.4631 main 0 0 P_____________ AL081999 45.0533 -66.4631 EX 37 988 -4 14 65
1999251N15314 1999 75 NA NA FLOYD 1999-09-18 06:00:00 ET 45.4000 -65.5000 35 990 hurdat_atl main 0 0 O_____________ hurdat_atl AL081999 45.4000 -65.5000 EX 35 990 -4 17 58
1999251N15314 1999 75 NA NA FLOYD 1999-09-18 09:00:00 ET 45.9594 -64.3912 main 0 0 P_____________ AL081999 45.9594 -64.3912 EX 35 991 -4 21 55
1999251N15314 1999 75 NA NA FLOYD 1999-09-18 12:00:00 ET 46.6000 -63.0000 35 992 hurdat_atl main 31 26 O_____________ hurdat_atl AL081999 46.6000 -63.0000 EX 35 992 -4 25 60
1999251N15314 1999 75 NA NA FLOYD 1999-09-18 15:00:00 ET 47.2207 -61.1930 main 50 7 P_____________ AL081999 47.2207 -61.1930 EX 35 992 -4 27 66
1999251N15314 1999 75 NA NA FLOYD 1999-09-18 18:00:00 ET 47.7000 -59.3000 35 992 hurdat_atl main 0 0 O_____________ hurdat_atl AL081999 47.7000 -59.3000 EX 35 992 -4 24 74
1999251N15314 1999 75 NA NA FLOYD 1999-09-18 21:00:00 ET 47.8882 -57.7982 main 0 0 P_____________ AL081999 47.8882 -57.7982 EX 35 992 -4 20 82
1999251N15314 1999 75 NA NA FLOYD 1999-09-19 00:00:00 ET 48.0000 -56.3000 35 992 hurdat_atl main 0 0 O_____________ hurdat_atl AL081999 48.0000 -56.3000 EX 35 992 -4 22 82
1999251N15314 1999 75 NA NA FLOYD 1999-09-19 03:00:00 ET 48.1946 -54.5068 main 0 0 P_____________ AL081999 48.1946 -54.5068 EX 35 993 -4 26 79
1999251N15314 1999 75 NA NA FLOYD 1999-09-19 06:00:00 ET 48.5000 -52.5000 35 994 hurdat_atl main 36 36 O_____________ hurdat_atl AL081999 48.5000 -52.5000 EX 35 994 -4 29 75
1999251N15314 1999 75 NA NA FLOYD 1999-09-19 09:00:00 ET 48.9645 -50.3136 main 204 204 P_____________ AL081999 48.9645 -50.3136 EX 37 993 -4 31 71
1999251N15314 1999 75 NA NA FLOYD 1999-09-19 12:00:00 ET 49.5000 -48.0000 40 992 hurdat_atl main 379 O_____________ hurdat_atl AL081999 49.5000 -48.0000 EX 40 992 -4 32 70

About IBTrACS Database

This database is a web-friendly format of International Best Track Archive for Climate Stewardship (IBTrACS), a global best track data archive curated by NOAA dating back to 1842.

Updated: 2021-10-25